Time;durP1;ratioP1;P1;durP2;ratioP2;P2;SDS_P1;SDS_P2;PMS_P1;PMS_P2;Temp;Humidity;BMP_temperature;BMP_pressure;BME280_temperature;BME280_humidity;BME280_pressure;Samples;Min_cycle;Max_cycle;Signal;HPM_P1;HPM_P2
2023/04/04 00:01:41;;;;;;;0.83;0.83;;;;;;;1.43;80.02;101390.66;5005952;28;20591;-52
2023/04/04 00:04:08;;;;;;;1.60;0.43;;;;;;;1.37;80.98;101385.25;5012311;28;20503;-52
2023/04/04 00:06:35;;;;;;;1.20;0.40;;;;;;;1.36;81.29;101398.28;5011981;28;20492;-54
2023/04/04 00:09:01;;;;;;;0.30;0.20;;;;;;;1.35;80.77;101386.94;5012048;28;20526;-53
2023/04/04 00:11:28;;;;;;;0.30;0.20;;;;;;;1.26;82.12;101383.19;5012141;28;20452;-52
2023/04/04 00:13:54;;;;;;;0.83;0.47;;;;;;;1.24;81.26;101385.78;5014121;28;20460;-53
2023/04/04 00:16:21;;;;;;;0.30;0.20;;;;;;;1.26;81.06;101381.47;5011964;28;20496;-52
2023/04/04 00:18:47;;;;;;;2.00;0.40;;;;;;;1.25;81.29;101384.03;5011964;28;20453;-53
2023/04/04 00:21:14;;;;;;;0.50;0.40;;;;;;;1.28;81.23;101385.00;5011923;28;20456;-52
2023/04/04 00:23:40;;;;;;;0.30;0.20;;;;;;;1.31;81.70;101385.09;5011729;28;20452;-52
2023/04/04 00:26:06;;;;;;;0.20;0.10;;;;;;;1.23;81.87;101376.13;5011741;28;20484;-52
2023/04/04 00:28:33;;;;;;;0.20;0.10;;;;;;;1.25;82.17;101377.06;5010734;28;20459;-53
2023/04/04 00:31:00;;;;;;;0.27;0.20;;;;;;;1.17;81.44;101376.84;5007616;28;20850;-52
2023/04/04 00:33:26;;;;;;;0.20;0.20;;;;;;;1.13;82.27;101376.75;5012225;28;20456;-52
2023/04/04 00:35:53;;;;;;;0.30;0.20;;;;;;;1.11;81.77;101370.59;4998553;28;20536;-53
2023/04/04 00:38:20;;;;;;;0.60;0.60;;;;;;;1.06;82.74;101362.59;5011474;28;20475;-52
2023/04/04 00:40:49;;;;;;;0.20;0.10;;;;;;;1.06;81.32;101357.34;5011897;28;20510;-53
2023/04/04 00:43:17;;;;;;;1.20;0.73;;;;;;;1.17;81.00;101355.03;4990857;28;20540;-54
2023/04/04 00:45:43;;;;;;;0.40;0.40;;;;;;;1.18;81.16;101357.69;5011496;28;21338;-52
2023/04/04 00:48:10;;;;;;;1.50;0.60;;;;;;;1.28;79.80;101358.81;5011525;28;20915;-52
2023/04/04 00:50:37;;;;;;;0.30;0.30;;;;;;;1.24;80.40;101356.09;5011172;28;20460;-53
2023/04/04 00:53:04;;;;;;;1.50;0.40;;;;;;;1.23;80.05;101360.41;5011715;28;20511;-53
2023/04/04 00:55:31;;;;;;;0.27;0.20;;;;;;;1.22;79.61;101358.63;5011303;28;20453;-52
2023/04/04 00:57:58;;;;;;;0.50;0.50;;;;;;;1.21;80.39;101353.38;5011494;28;20575;-51
2023/04/04 01:00:25;;;;;;;0.37;0.37;;;;;;;1.29;80.12;101355.34;4998924;28;20457;-54
2023/04/04 01:02:52;;;;;;;0.30;0.20;;;;;;;1.26;79.68;101350.03;5011372;28;20955;-52
2023/04/04 01:05:18;;;;;;;0.20;0.17;;;;;;;1.33;79.14;101353.69;5011011;28;20803;-54
2023/04/04 01:07:45;;;;;;;0.40;0.27;;;;;;;1.29;79.48;101346.63;5011207;28;20500;-53
2023/04/04 01:10:12;;;;;;;0.53;0.50;;;;;;;1.28;79.02;101348.34;5011122;28;20452;-52
2023/04/04 01:12:40;;;;;;;0.50;0.40;;;;;;;1.25;77.78;101352.63;5011107;28;20515;-52
2023/04/04 01:15:07;;;;;;;0.37;0.30;;;;;;;1.34;78.15;101352.84;4998221;28;20807;-53
2023/04/04 01:17:34;;;;;;;5.80;0.57;;;;;;;1.47;78.00;101350.56;5010950;28;20560;-53
2023/04/04 01:20:14;;;;;;;0.57;0.57;;;;;;;1.31;77.37;101356.28;5010926;28;20544;-52
2023/04/04 01:22:43;;;;;;;0.50;0.50;;;;;;;1.31;77.68;101353.66;5011142;28;20452;-54
2023/04/04 01:25:10;;;;;;;0.20;0.20;;;;;;;1.34;77.30;101352.84;4986000;28;20457;-54
2023/04/04 01:27:37;;;;;;;0.30;0.30;;;;;;;1.29;78.01;101349.22;5010589;28;20531;-53
2023/04/04 01:30:06;;;;;;;0.30;0.20;;;;;;;1.29;77.96;101351.84;5006886;28;20855;-52
2023/04/04 01:32:51;;;;;;;0.50;0.50;;;;;;;1.22;78.68;101345.53;5010526;28;20456;-52
2023/04/04 01:35:31;;;;;;;0.30;0.30;;;;;;;1.31;78.56;101343.19;5000510;28;20449;-52
2023/04/04 01:38:36;;;;;;;0.30;0.30;;;;;;;1.09;79.23;101343.44;5009690;28;21303;-52
2023/04/04 01:41:07;;;;;;;1.47;0.40;;;;;;;1.21;79.49;101341.16;5008512;28;20452;-52
2023/04/04 01:43:33;;;;;;;0.30;0.20;;;;;;;1.22;77.92;101332.47;5002208;28;20459;-54
2023/04/04 01:46:00;;;;;;;0.30;0.20;;;;;;;1.16;78.89;101334.94;5010460;28;20472;-52
2023/04/04 01:48:27;;;;;;;3.00;1.77;;;;;;;1.13;78.58;101334.84;5010174;28;20523;-54
2023/04/04 01:50:54;;;;;;;22.97;0.70;;;;;;;1.14;78.99;101331.38;5010424;28;20449;-52
2023/04/04 01:53:20;;;;;;;0.33;0.30;;;;;;;1.26;78.00;101339.56;5010072;28;20453;-52
2023/04/04 01:55:47;;;;;;;0.30;0.30;;;;;;;1.34;77.72;101337.13;5010235;28;20484;-53
2023/04/04 01:58:14;;;;;;;0.30;0.20;;;;;;;1.44;77.11;101334.78;5010009;28;20928;-52
2023/04/04 02:00:40;;;;;;;0.30;0.30;;;;;;;1.68;76.14;101328.41;4999496;28;20455;-52
2023/04/04 02:03:08;;;;;;;0.20;0.10;;;;;;;1.32;76.80;101329.22;5010033;28;20460;-51
2023/04/04 02:05:34;;;;;;;0.40;0.40;;;;;;;1.29;77.22;101330.91;5009743;28;20457;-55
2023/04/04 02:08:01;;;;;;;0.40;0.30;;;;;;;1.56;75.79;101318.50;5010115;28;20492;-54
2023/04/04 02:10:29;;;;;;;0.30;0.20;;;;;;;1.69;75.75;101325.81;5010009;28;20492;-52
2023/04/04 02:12:55;;;;;;;1.33;0.50;;;;;;;1.59;76.12;101329.03;5010126;28;20535;-52
2023/04/04 02:15:22;;;;;;;0.60;0.60;;;;;;;1.63;75.63;101325.63;5010036;28;20456;-53
2023/04/04 02:17:49;;;;;;;0.20;0.17;;;;;;;1.54;75.30;101338.53;5009865;28;20472;-53
2023/04/04 02:20:18;;;;;;;0.53;0.53;;;;;;;1.39;76.13;101336.41;5009602;28;21188;-52
2023/04/04 02:22:52;;;;;;;0.43;0.43;;;;;;;1.32;76.34;101347.56;5009843;28;20463;-53
2023/04/04 02:25:23;;;;;;;0.20;0.10;;;;;;;1.52;76.25;101347.22;4986326;28;20459;-53
2023/04/04 02:27:49;;;;;;;0.20;0.20;;;;;;;1.28;76.05;101344.84;5009373;28;20544;-52
2023/04/04 02:30:16;;;;;;;0.27;0.20;;;;;;;1.38;76.66;101339.88;5004842;28;20456;-53
2023/04/04 02:32:43;;;;;;;0.63;0.63;;;;;;;1.40;75.86;101337.31;5009827;28;20456;-54
2023/04/04 02:35:09;;;;;;;0.30;0.20;;;;;;;1.30;76.02;101335.28;5000344;28;20445;-52
2023/04/04 02:37:36;;;;;;;0.20;0.20;;;;;;;1.33;76.22;101341.47;5005877;28;20472;-53
2023/04/04 02:40:02;;;;;;;0.60;0.60;;;;;;;1.45;75.16;101343.53;5009864;28;20452;-52
2023/04/04 02:42:29;;;;;;;0.20;0.20;;;;;;;1.48;75.74;101340.97;4998449;28;20832;-52
2023/04/04 02:44:55;;;;;;;0.63;0.63;;;;;;;1.53;74.55;101341.13;5009297;28;20487;-53
2023/04/04 02:47:22;;;;;;;0.67;0.40;;;;;;;1.38;74.86;101337.28;5009002;28;20504;-52
2023/04/04 02:49:48;;;;;;;0.30;0.20;;;;;;;1.53;74.08;101338.50;5009700;28;20456;-54
2023/04/04 02:52:15;;;;;;;1.10;1.07;;;;;;;1.60;74.03;101333.44;5009413;28;20453;-53
2023/04/04 02:54:41;;;;;;;4.80;0.70;;;;;;;1.43;73.96;101330.41;5009417;28;20456;-55
2023/04/04 02:57:08;;;;;;;0.50;0.43;;;;;;;1.47;74.49;101336.59;5009169;28;21099;-53
2023/04/04 02:59:34;;;;;;;0.80;0.47;;;;;;;1.37;74.07;101322.41;5001706;28;20462;-53
2023/04/04 03:02:01;;;;;;;0.30;0.30;;;;;;;1.66;74.42;101325.75;5005633;28;20483;-53
2023/04/04 03:04:28;;;;;;;0.30;0.30;;;;;;;1.56;74.10;101322.84;5009120;28;20471;-53
2023/04/04 03:06:54;;;;;;;0.40;0.30;;;;;;;1.52;73.37;101331.50;5009160;28;20500;-53
2023/04/04 03:09:21;;;;;;;0.20;0.20;;;;;;;1.40;74.05;101332.94;5009242;28;20461;-52
2023/04/04 03:11:48;;;;;;;0.30;0.27;;;;;;;1.37;73.98;101331.97;5009190;28;20539;-52
2023/04/04 03:14:15;;;;;;;0.20;0.20;;;;;;;1.47;74.63;101327.00;5007777;28;20467;-54
2023/04/04 03:16:42;;;;;;;0.20;0.20;;;;;;;1.54;74.15;101321.94;5007914;28;21051;-53
2023/04/04 03:19:09;;;;;;;0.20;0.10;;;;;;;1.34;74.56;101322.31;5009511;28;20549;-54
2023/04/04 03:21:35;;;;;;;2.73;0.40;;;;;;;1.39;73.95;101323.31;5009021;28;20451;-51
2023/04/04 03:24:02;;;;;;;0.30;0.30;;;;;;;1.31;74.24;101319.59;5008866;28;20499;-55
2023/04/04 03:26:28;;;;;;;0.30;0.20;;;;;;;1.30;74.68;101327.44;5008782;28;20488;-53
2023/04/04 03:28:55;;;;;;;1.33;1.23;;;;;;;1.27;75.01;101322.13;5006698;28;20503;-53
2023/04/04 03:31:21;;;;;;;0.30;0.20;;;;;;;1.13;75.11;101313.91;5006147;28;20525;-54
2023/04/04 03:33:48;;;;;;;0.20;0.20;;;;;;;0.98;75.33;101317.00;5009360;28;20452;-52
2023/04/04 03:36:15;;;;;;;0.30;0.30;;;;;;;0.93;76.90;101312.47;4997312;28;21024;-54
2023/04/04 03:38:42;;;;;;;0.30;0.20;;;;;;;1.07;75.51;101305.88;5012745;28;20448;-54
2023/04/04 03:41:08;;;;;;;0.20;0.10;;;;;;;0.98;75.95;101311.78;5009989;28;20458;-52
2023/04/04 03:43:35;;;;;;;0.20;0.20;;;;;;;1.04;75.17;101314.53;5004945;28;20457;-54
2023/04/04 03:46:03;;;;;;;0.40;0.40;;;;;;;1.09;74.84;101317.28;5012664;28;20558;-52
2023/04/04 03:48:30;;;;;;;0.30;0.20;;;;;;;1.02;74.92;101317.97;5012547;28;21032;-54
2023/04/04 03:50:57;;;;;;;0.37;0.37;;;;;;;1.13;74.06;101306.94;5012607;28;20894;-52
2023/04/04 03:53:24;;;;;;;0.20;0.10;;;;;;;1.08;74.69;101312.88;5012634;28;20568;-54
2023/04/04 03:55:52;;;;;;;0.30;0.30;;;;;;;0.94;74.76;101309.00;4986746;28;20476;-52
2023/04/04 03:58:19;;;;;;;0.73;0.73;;;;;;;0.80;76.45;101313.88;5011963;28;20467;-53
2023/04/04 04:00:45;;;;;;;0.40;0.40;;;;;;;0.86;76.00;101307.09;5002226;28;20483;-53
2023/04/04 04:03:12;;;;;;;8.73;0.90;;;;;;;0.87;76.65;101305.38;5012300;28;20478;-52
2023/04/04 04:05:42;;;;;;;0.47;0.47;;;;;;;0.82;75.40;101306.94;5012123;28;20938;-52
2023/04/04 04:08:08;;;;;;;0.40;0.40;;;;;;;0.89;75.65;101304.56;5011952;28;20903;-53
2023/04/04 04:10:35;;;;;;;0.50;0.50;;;;;;;0.74;76.01;101306.75;5012073;28;20452;-52
2023/04/04 04:13:01;;;;;;;0.60;0.30;;;;;;;0.70;76.36;101312.75;5011848;28;20453;-52
2023/04/04 04:15:28;;;;;;;0.30;0.23;;;;;;;0.73;76.19;101304.09;5011984;28;20452;-52
2023/04/04 04:17:54;;;;;;;3.67;0.70;;;;;;;0.74;77.42;101309.38;5011993;28;20459;-52
2023/04/04 04:20:21;;;;;;;0.40;0.40;;;;;;;0.68;77.61;101306.56;5010802;28;20948;-53
2023/04/04 04:22:48;;;;;;;0.30;0.20;;;;;;;0.66;77.55;101305.66;5011863;28;20958;-53
2023/04/04 04:25:16;;;;;;;0.33;0.33;;;;;;;0.56;77.08;101301.03;5011843;28;20448;-54
2023/04/04 04:27:44;;;;;;;0.43;0.20;;;;;;;0.56;77.89;101294.06;5011565;28;20553;-54
2023/04/04 04:30:11;;;;;;;0.50;0.30;;;;;;;0.55;77.52;101294.91;5008310;28;20452;-52
2023/04/04 04:32:38;;;;;;;0.30;0.20;;;;;;;0.73;77.28;101294.53;5011614;28;21029;-53
2023/04/04 04:35:05;;;;;;;0.47;0.47;;;;;;;0.49;78.00;101294.72;5003069;28;20449;-52
2023/04/04 04:37:32;;;;;;;0.43;0.43;;;;;;;0.52;78.01;101307.00;5007440;28;20962;-53
2023/04/04 04:40:00;;;;;;;0.30;0.23;;;;;;;0.42;77.89;101298.03;5011501;28;20944;-52
2023/04/04 04:42:28;;;;;;;0.20;0.20;;;;;;;0.49;77.93;101299.94;5000642;28;20560;-52
2023/04/04 04:44:54;;;;;;;0.30;0.20;;;;;;;0.46;78.39;101298.97;5011265;28;20984;-52
2023/04/04 04:47:21;;;;;;;0.20;0.10;;;;;;;0.46;77.58;101301.59;5010134;28;20509;-52
2023/04/04 04:49:48;;;;;;;8.20;0.43;;;;;;;0.46;77.66;101296.38;5011380;28;20453;-52
2023/04/04 04:52:15;;;;;;;0.30;0.20;;;;;;;0.53;78.57;101303.53;5011285;28;20555;-52
2023/04/04 04:54:42;;;;;;;0.50;0.50;;;;;;;0.46;77.67;101309.44;5011026;28;20973;-52
2023/04/04 04:57:09;;;;;;;0.27;0.17;;;;;;;0.49;77.21;101309.53;5011196;28;20479;-51
2023/04/04 04:59:36;;;;;;;0.30;0.20;;;;;;;0.48;78.58;101315.59;5003757;28;20512;-55
2023/04/04 05:02:02;;;;;;;1.40;0.73;;;;;;;0.49;77.56;101313.03;5008033;28;21073;-53
2023/04/04 05:04:29;;;;;;;0.47;0.47;;;;;;;0.50;77.22;101312.19;5011131;28;20459;-52
2023/04/04 05:06:55;;;;;;;0.60;0.60;;;;;;;0.55;77.46;101312.34;5010595;28;20504;-54
2023/04/04 05:09:22;;;;;;;0.30;0.30;;;;;;;0.63;77.89;101308.19;5010835;28;20512;-52
2023/04/04 05:11:48;;;;;;;0.40;0.40;;;;;;;0.59;77.99;101315.06;5010728;28;21054;-52
2023/04/04 05:14:15;;;;;;;0.20;0.20;;;;;;;0.58;77.93;101315.91;5010855;28;20857;-52
2023/04/04 05:16:41;;;;;;;0.30;0.20;;;;;;;0.54;77.22;101313.16;5010780;28;20473;-53
2023/04/04 05:19:08;;;;;;;0.70;0.70;;;;;;;0.65;78.03;101316.06;5010874;28;20448;-52
2023/04/04 05:21:35;;;;;;;0.70;0.70;;;;;;;0.68;77.79;101311.81;5010891;28;20962;-52
2023/04/04 05:24:01;;;;;;;0.40;0.20;;;;;;;0.86;76.30;101314.06;5010765;28;20946;-52
2023/04/04 05:26:28;;;;;;;0.50;0.40;;;;;;;1.53;74.91;101315.81;5010995;28;20496;-54
2023/04/04 05:28:55;;;;;;;0.70;0.70;;;;;;;1.92;71.76;101312.34;5008434;28;20530;-54
2023/04/04 05:31:21;;;;;;;0.27;0.20;;;;;;;2.07;71.43;101316.22;5008315;28;20456;-53
2023/04/04 05:33:47;;;;;;;0.20;0.20;;;;;;;2.32;70.91;101315.00;5010563;28;20444;-54
2023/04/04 05:36:14;;;;;;;0.30;0.20;;;;;;;2.51;68.60;101318.91;4997014;28;20473;-55
2023/04/04 05:38:41;;;;;;;2.57;0.43;;;;;;;2.53;68.53;101301.44;5010613;28;20547;-54
2023/04/04 05:41:07;;;;;;;8.03;0.60;;;;;;;2.81;67.89;101308.13;5007968;28;20488;-54
2023/04/04 05:43:34;;;;;;;0.30;0.20;;;;;;;2.89;66.83;101306.53;5002592;28;20522;-55
2023/04/04 05:46:01;;;;;;;0.30;0.20;;;;;;;3.09;66.56;101306.00;5010283;28;21001;-55
2023/04/04 05:48:27;;;;;;;1.27;0.30;;;;;;;2.92;67.25;101303.09;5010109;28;20493;-55
2023/04/04 05:50:54;;;;;;;1.90;1.70;;;;;;;2.57;67.95;101305.91;5010058;28;20452;-55
2023/04/04 05:53:21;;;;;;;1.43;0.50;;;;;;;2.65;67.97;101306.06;5010326;28;20992;-54
2023/04/04 05:55:52;;;;;;;0.60;0.50;;;;;;;2.31;69.12;101291.34;5010188;28;20970;-55
2023/04/04 05:58:18;;;;;;;0.30;0.30;;;;;;;2.68;68.99;101299.13;5009974;28;20456;-54
2023/04/04 06:00:44;;;;;;;0.30;0.20;;;;;;;2.61;68.27;101307.75;4999594;28;20452;-54
2023/04/04 06:03:11;;;;;;;0.77;0.53;;;;;;;2.59;68.32;101311.16;5009896;28;20464;-54
2023/04/04 06:05:38;;;;;;;0.30;0.30;;;;;;;2.38;68.38;101303.75;5010011;28;20464;-55
2023/04/04 06:08:05;;;;;;;0.40;0.40;;;;;;;2.33;69.11;101305.38;5010328;28;20615;-54
2023/04/04 06:10:31;;;;;;;0.40;0.37;;;;;;;2.37;69.70;101305.50;4984083;28;20468;-54
2023/04/04 06:12:58;;;;;;;0.30;0.20;;;;;;;2.23;70.36;101312.19;5009973;28;20452;-54
2023/04/04 06:15:24;;;;;;;0.60;0.53;;;;;;;2.37;69.96;101309.84;5009726;28;20464;-54
2023/04/04 06:17:50;;;;;;;0.33;0.30;;;;;;;2.54;69.77;101318.06;5009592;28;20469;-55
2023/04/04 06:20:21;;;;;;;0.30;0.30;;;;;;;2.41;69.95;101311.69;4984890;28;20467;-55
2023/04/04 06:22:48;;;;;;;1.63;0.80;;;;;;;2.40;70.22;101322.16;5009388;28;20449;-54
2023/04/04 06:25:14;;;;;;;1.50;0.60;;;;;;;2.47;69.48;101322.31;5009818;28;20456;-54
2023/04/04 06:27:41;;;;;;;0.40;0.33;;;;;;;2.55;68.81;101322.47;5009371;28;20927;-55
2023/04/04 06:30:08;;;;;;;1.33;0.37;;;;;;;2.63;69.34;101326.16;5005183;28;20460;-55
2023/04/04 06:32:37;;;;;;;0.37;0.20;;;;;;;2.70;69.19;101321.88;5009376;28;20445;-54
2023/04/04 06:35:04;;;;;;;0.33;0.27;;;;;;;2.79;68.68;101327.34;5001125;28;21006;-55
2023/04/04 06:37:31;;;;;;;0.20;0.10;;;;;;;2.89;68.03;101332.81;5004999;28;20489;-54
2023/04/04 06:39:57;;;;;;;0.30;0.20;;;;;;;2.97;67.53;101330.31;5009414;28;20875;-55
2023/04/04 06:42:23;;;;;;;0.60;0.60;;;;;;;2.86;66.44;101337.09;4998276;28;20515;-54
2023/04/04 06:44:50;;;;;;;0.30;0.20;;;;;;;2.86;66.61;101329.19;5009202;28;20471;-54
2023/04/04 06:47:16;;;;;;;0.43;0.40;;;;;;;2.77;65.93;101343.06;5009533;28;20479;-55
2023/04/04 06:49:43;;;;;;;7.10;1.03;;;;;;;2.88;66.90;101346.78;5009507;28;20502;-54
2023/04/04 06:52:09;;;;;;;0.43;0.43;;;;;;;3.19;66.87;101339.47;5009178;28;20453;-55
2023/04/04 06:54:36;;;;;;;0.60;0.60;;;;;;;3.00;63.77;101348.72;5009249;28;20535;-54
2023/04/04 06:57:03;;;;;;;0.30;0.30;;;;;;;3.04;63.80;101336.56;5009088;28;20499;-54
2023/04/04 06:59:29;;;;;;;0.40;0.40;;;;;;;3.20;64.98;101334.25;5002042;28;20967;-54
2023/04/04 07:01:56;;;;;;;0.20;0.20;;;;;;;3.07;63.05;101348.00;5005543;28;20780;-55
2023/04/04 07:04:23;;;;;;;0.40;0.40;;;;;;;3.33;63.94;101343.25;5009287;28;20462;-55
2023/04/04 07:06:49;;;;;;;0.77;0.77;;;;;;;3.19;62.45;101343.00;5009092;28;20485;-55
2023/04/04 07:09:16;;;;;;;2.10;1.70;;;;;;;3.15;63.08;101343.81;5008990;28;21001;-55
2023/04/04 07:11:54;;;;;;;1.90;0.57;;;;;;;3.42;63.44;101343.38;5012431;28;20480;-55
2023/04/04 07:14:23;;;;;;;0.30;0.20;;;;;;;3.31;63.18;101344.06;5013063;28;20904;-55
2023/04/04 07:16:51;;;;;;;0.40;0.30;;;;;;;3.55;63.00;101347.09;5013184;28;20603;-54
2023/04/04 07:19:17;;;;;;;0.30;0.20;;;;;;;3.74;64.01;101350.94;5013304;28;20950;-55
2023/04/04 07:21:44;;;;;;;0.30;0.20;;;;;;;3.47;62.80;101352.25;5013183;28;21021;-55
2023/04/04 07:24:10;;;;;;;0.20;0.10;;;;;;;3.35;61.73;101357.28;5013182;28;20460;-55
2023/04/04 07:26:37;;;;;;;0.50;0.50;;;;;;;3.50;61.46;101357.56;5012874;28;20480;-55
2023/04/04 07:29:03;;;;;;;0.30;0.20;;;;;;;3.48;63.08;101342.63;5010061;28;20595;-55
2023/04/04 07:31:29;;;;;;;0.80;0.40;;;;;;;3.44;62.46;101361.84;5012480;28;20453;-55
2023/04/04 07:33:56;;;;;;;0.30;0.20;;;;;;;3.66;61.73;101353.44;5013357;28;20865;-54
2023/04/04 07:36:22;;;;;;;0.30;0.30;;;;;;;3.68;60.99;101356.09;4999488;28;20468;-54
2023/04/04 07:38:49;;;;;;;0.20;0.10;;;;;;;3.68;60.33;101356.97;5012858;28;20448;-54
2023/04/04 07:41:15;;;;;;;0.30;0.23;;;;;;;3.97;62.09;101359.19;5008785;28;20885;-54
2023/04/04 07:43:42;;;;;;;1.10;1.10;;;;;;;4.00;61.56;101359.25;5006101;28;20456;-55
2023/04/04 07:46:08;;;;;;;0.40;0.40;;;;;;;4.06;60.69;101354.06;5012497;28;20835;-54
2023/04/04 07:48:35;;;;;;;0.37;0.37;;;;;;;3.94;59.48;101359.13;5012628;28;20502;-54
2023/04/04 07:51:03;;;;;;;0.43;0.43;;;;;;;4.11;59.98;101353.28;5012711;28;20458;-54
2023/04/04 07:53:29;;;;;;;0.30;0.20;;;;;;;3.95;59.98;101355.63;5013255;28;20456;-54
2023/04/04 07:55:56;;;;;;;4.23;1.17;;;;;;;4.20;60.18;101343.75;5005879;28;20477;-54
2023/04/04 07:58:22;;;;;;;0.30;0.30;;;;;;;4.39;59.74;101353.69;5005826;28;20452;-54
2023/04/04 08:00:49;;;;;;;0.30;0.27;;;;;;;4.47;58.17;101352.91;5000670;28;20452;-54
2023/04/04 08:03:16;;;;;;;0.53;0.53;;;;;;;4.42;58.20;101349.34;5012533;28;20452;-54
2023/04/04 08:05:43;;;;;;;0.30;0.20;;;;;;;4.65;58.48;101352.25;5012140;28;20458;-54
2023/04/04 08:08:09;;;;;;;0.40;0.40;;;;;;;4.50;56.46;101346.78;5011579;28;20456;-54
2023/04/04 08:10:36;;;;;;;0.30;0.20;;;;;;;4.91;57.11;101335.88;5011759;28;20826;-55
2023/04/04 08:13:04;;;;;;;1.17;1.17;;;;;;;4.81;58.59;101347.19;5012169;28;20456;-55
2023/04/04 08:15:31;;;;;;;0.60;0.40;;;;;;;4.45;56.02;101351.13;5012026;28;20448;-55
2023/04/04 08:17:57;;;;;;;0.37;0.27;;;;;;;4.68;57.82;101341.78;5011942;28;20467;-54
2023/04/04 08:20:23;;;;;;;0.20;0.20;;;;;;;4.73;55.77;101352.34;5011959;28;20452;-55
2023/04/04 08:22:50;;;;;;;1.40;0.30;;;;;;;4.66;55.58;101342.59;5011838;28;20839;-54
2023/04/04 08:25:17;;;;;;;0.50;0.50;;;;;;;5.04;56.94;101337.78;5011617;28;20452;-55
2023/04/04 08:27:44;;;;;;;0.50;0.30;;;;;;;4.98;56.37;101333.34;5011497;28;20511;-55
2023/04/04 08:30:14;;;;;;;0.40;0.40;;;;;;;4.67;54.94;101333.88;5007666;28;20500;-54
2023/04/04 08:32:43;;;;;;;0.40;0.40;;;;;;;4.90;55.99;101329.72;5011508;28;20502;-54
2023/04/04 08:35:09;;;;;;;0.60;0.60;;;;;;;4.92;54.55;101341.16;5002303;28;20472;-55
2023/04/04 08:37:37;;;;;;;0.40;0.40;;;;;;;5.15;55.14;101338.78;5007560;28;21051;-55
2023/04/04 08:40:05;;;;;;;0.30;0.30;;;;;;;5.30;54.47;101341.56;5011469;28;20527;-55
2023/04/04 08:42:35;;;;;;;0.50;0.50;;;;;;;5.24;54.73;101338.00;5000991;28;20460;-55
2023/04/04 08:45:03;;;;;;;0.87;0.87;;;;;;;5.50;55.57;101343.53;5011239;28;20460;-55
2023/04/04 08:47:35;;;;;;;0.40;0.30;;;;;;;5.74;55.34;101337.56;5010894;28;20468;-55
2023/04/04 08:50:05;;;;;;;0.63;0.63;;;;;;;5.46;54.57;101341.72;5011762;28;20939;-55
2023/04/04 08:52:34;;;;;;;1.13;0.30;;;;;;;5.46;53.65;101342.59;5011240;28;20962;-55
2023/04/04 08:55:05;;;;;;;0.60;0.57;;;;;;;5.43;53.90;101347.84;5011344;28;20498;-55
2023/04/04 08:57:32;;;;;;;0.40;0.40;;;;;;;5.09;52.34;101341.38;5011390;28;20483;-55
2023/04/04 08:59:59;;;;;;;0.60;0.60;;;;;;;5.63;55.11;101342.78;5000476;28;21001;-53
2023/04/04 09:02:32;;;;;;;5.53;0.67;;;;;;;5.57;51.76;101337.44;5011039;28;20511;-53
2023/04/04 09:05:01;;;;;;;0.30;0.23;;;;;;;5.87;53.61;101337.66;5010946;28;20452;-53
2023/04/04 09:07:34;;;;;;;0.60;0.60;;;;;;;5.50;50.80;101339.16;5010916;28;20504;-54
2023/04/04 09:10:07;;;;;;;0.30;0.20;;;;;;;5.68;50.86;101335.78;5010576;28;20506;-53
2023/04/04 09:12:36;;;;;;;0.50;0.50;;;;;;;6.06;52.11;101332.56;5010834;28;20907;-53
2023/04/04 09:15:03;;;;;;;0.40;0.30;;;;;;;6.19;51.85;101329.16;5010270;28;21024;-54
2023/04/04 09:17:29;;;;;;;0.30;0.20;;;;;;;5.86;50.04;101340.28;5010677;28;20504;-54
2023/04/04 09:20:01;;;;;;;0.60;0.60;;;;;;;6.13;52.49;101335.25;5011143;28;20457;-54
2023/04/04 09:22:28;;;;;;;1.33;1.33;;;;;;;5.64;51.53;101332.22;5010606;28;20453;-54
2023/04/04 09:24:55;;;;;;;0.40;0.30;;;;;;;5.99;51.00;101336.03;5009450;28;20453;-53
2023/04/04 09:27:21;;;;;;;8.33;1.50;;;;;;;6.24;50.50;101328.28;5010635;28;20567;-54
2023/04/04 09:29:48;;;;;;;0.40;0.30;;;;;;;6.10;49.75;101332.59;5005992;28;20840;-54
2023/04/04 09:32:16;;;;;;;0.40;0.40;;;;;;;6.08;49.76;101330.81;5011218;28;20504;-57
2023/04/04 09:34:44;;;;;;;0.50;0.50;;;;;;;6.15;49.55;101325.56;5004212;28;20472;-54
2023/04/04 09:37:13;;;;;;;0.50;0.50;;;;;;;6.40;50.00;101333.63;5003303;28;20482;-54
2023/04/04 09:39:40;;;;;;;0.77;0.57;;;;;;;6.19;49.97;101327.38;5010053;28;20535;-53
2023/04/04 09:42:07;;;;;;;3.00;0.63;;;;;;;5.92;49.54;101321.94;4999454;28;20465;-54
2023/04/04 09:44:35;;;;;;;1.10;0.47;;;;;;;5.87;49.63;101327.13;4997462;28;20985;-53
2023/04/04 09:47:24;;;;;;;0.30;0.30;;;;;;;6.06;50.54;101336.09;5010396;28;20477;-54
2023/04/04 09:50:00;;;;;;;7.77;1.50;;;;;;;6.08;49.78;101331.72;5010419;28;20515;-54
2023/04/04 09:52:31;;;;;;;0.87;0.30;;;;;;;6.18;50.19;101325.63;5010503;28;20556;-54
2023/04/04 09:54:59;;;;;;;6.50;0.80;;;;;;;6.33;49.56;101326.59;5010083;28;20459;-54
2023/04/04 09:57:30;;;;;;;0.30;0.20;;;;;;;6.54;49.21;101322.28;5010073;28;20479;-54
2023/04/04 09:59:59;;;;;;;0.43;0.40;;;;;;;6.30;49.51;101323.91;4999348;28;20822;-54
2023/04/04 10:02:29;;;;;;;0.80;0.57;;;;;;;6.59;49.50;101321.44;5010156;28;20457;-54
2023/04/04 10:04:56;;;;;;;0.53;0.53;;;;;;;6.80;49.81;101335.59;4995336;28;20894;-54
2023/04/04 10:07:32;;;;;;;4.37;0.53;;;;;;;6.74;50.43;101318.84;5000459;28;20472;-54
2023/04/04 10:10:06;;;;;;;1.03;0.97;;;;;;;6.31;50.60;101329.22;5008727;28;20571;-54
2023/04/04 10:12:33;;;;;;;0.50;0.50;;;;;;;6.47;48.56;101324.91;5010189;28;20476;-54
2023/04/04 10:15:01;;;;;;;0.60;0.60;;;;;;;6.64;49.26;101330.25;5009898;28;20457;-55
2023/04/04 10:17:36;;;;;;;0.40;0.33;;;;;;;7.06;48.17;101322.44;5009752;28;20485;-55
2023/04/04 10:20:05;;;;;;;0.40;0.30;;;;;;;7.09;47.38;101326.84;5009397;28;20449;-55
2023/04/04 10:22:32;;;;;;;0.60;0.60;;;;;;;7.33;48.98;101323.38;5009829;28;20505;-55
2023/04/04 10:24:59;;;;;;;0.60;0.60;;;;;;;6.71;48.53;101314.41;5009581;28;20467;-54
2023/04/04 10:27:26;;;;;;;2.33;0.93;;;;;;;7.26;47.35;101324.25;5009501;28;20997;-55
2023/04/04 10:29:53;;;;;;;0.53;0.47;;;;;;;7.12;48.12;101316.28;5009241;28;20523;-54
2023/04/04 10:32:31;;;;;;;0.33;0.30;;;;;;;6.75;48.09;101317.97;5009974;28;20463;-54
2023/04/04 10:35:09;;;;;;;0.73;0.70;;;;;;;6.98;48.32;101316.25;4994879;28;20446;-54
2023/04/04 10:37:41;;;;;;;0.40;0.30;;;;;;;7.06;47.70;101305.72;5005848;28;20475;-54
2023/04/04 10:40:14;;;;;;;0.40;0.30;;;;;;;7.34;48.97;101302.22;5009636;28;20934;-53
2023/04/04 10:42:45;;;;;;;0.70;0.60;;;;;;;7.40;48.39;101310.19;4986056;28;20819;-56
2023/04/04 10:45:14;;;;;;;0.60;0.60;;;;;;;6.88;47.06;101309.19;5009400;28;20452;-55
2023/04/04 10:47:47;;;;;;;2.33;1.87;;;;;;;7.11;47.78;101311.88;5009969;28;20484;-55
2023/04/04 10:50:14;;;;;;;1.07;0.87;;;;;;;7.39;46.83;101307.50;5009612;28;20583;-55
2023/04/04 10:52:45;;;;;;;1.00;0.57;;;;;;;7.69;47.53;101296.06;4983837;28;20452;-56
2023/04/04 10:55:13;;;;;;;2.33;0.87;;;;;;;7.27;47.76;101295.19;5009742;28;20459;-55
2023/04/04 10:57:46;;;;;;;0.70;0.40;;;;;;;7.09;47.55;101300.44;5009556;28;20535;-55
2023/04/04 11:00:16;;;;;;;0.40;0.30;;;;;;;6.95;45.82;101297.75;5008573;28;20451;-55
2023/04/04 11:02:47;;;;;;;0.40;0.40;;;;;;;7.10;47.21;101296.91;5009576;28;20452;-56
2023/04/04 11:06:08;;;;;;;0.50;0.43;;;;;;;7.28;46.66;101290.78;5008933;28;20541;-55
2023/04/04 11:08:28;;;;;;;1.43;1.33;;;;;;;7.51;47.86;101304.88;5008979;28;20472;-55
2023/04/04 11:10:56;;;;;;;0.70;0.50;;;;;;;7.12;45.76;101282.78;5009727;28;20492;-55
2023/04/04 11:13:31;;;;;;;0.43;0.40;;;;;;;7.62;46.00;101276.66;5009428;28;20448;-55
2023/04/04 11:16:06;;;;;;;13.17;0.57;;;;;;;7.54;47.02;101282.81;5009479;28;20472;-55
2023/04/04 11:18:39;;;;;;;0.77;0.70;;;;;;;7.76;47.00;101278.41;5010762;28;20456;-55
2023/04/04 11:21:07;;;;;;;1.80;1.30;;;;;;;7.98;47.74;101270.44;5010514;28;20449;-55
2023/04/04 11:23:46;;;;;;;0.30;0.20;;;;;;;8.20;46.87;101278.31;5010758;28;20461;-52
2023/04/04 11:26:16;;;;;;;0.47;0.40;;;;;;;7.38;46.81;101260.78;5009565;28;20491;-56
2023/04/04 11:28:44;;;;;;;0.40;0.20;;;;;;;7.39;46.90;101270.47;5011417;28;20507;-53
2023/04/04 11:31:22;;;;;;;0.50;0.50;;;;;;;7.64;46.82;101274.00;5010130;28;20488;-56
2023/04/04 11:34:13;;;;;;;0.87;0.87;;;;;;;7.80;47.70;101267.81;5004051;28;20481;-54
2023/04/04 11:36:40;;;;;;;1.20;1.10;;;;;;;7.74;48.68;101265.19;4989414;28;20478;-51
2023/04/04 11:39:11;;;;;;;0.90;0.90;;;;;;;7.91;47.67;101258.09;5005011;28;20475;-51